Terminal Aerodrome Forecast
Issued by NWS Wilmington, OH

Current Version | Previous Version | Graphics & Text | Print | Product List | Glossary On
Versions: 1 2 3 4 5 6 7 8 9 10 11 12 13 14 15 16 17 18 19 20 21
000
FTUS41 KILN 271752
TAFILN
TAF
KILN 271752Z 2718/2818 19006KT P6SM FEW030 BKN120
     FM272100 18006KT P6SM VCSH FEW035 OVC100
     FM280100 17004KT 5SM SHRA SCT040 BKN080
      TEMPO 2801/2803 4SM -TSRA BR OVC040CB
     FM280300 17005KT 5SM -SHRA BR OVC035
     FM280800 VRB04KT 3SM BR VCSH OVC012
     FM281100 33006KT 3SM BR OVC006
     FM281400 35007KT P6SM OVC009=

USA.gov is the U.S. government's official web portal to all federal, state and local government web resources and services.